Time,TemperatureF,DewpointF,PressureIn,WindDirection,WindDirectionDegrees,WindSpeedMPH,WindSpeedGustMPH,Humidity,HourlyPrecipIn,Conditions,Clouds,dailyrainin,SoftwareType,DateUTC
2013-10-12 00:01:00,48.2,43.3,29.98,NW,323,0.0,0.0,83,0.00,,---,0.00,VWS V14.01,2013-10-12 07:01:00,
2013-10-12 00:06:00,48.1,43.5,29.98,NW,323,0.0,0.0,84,0.00,,---,0.00,VWS V14.01,2013-10-12 07:06:00,
2013-10-12 00:11:00,47.8,43.2,29.98,NW,323,0.0,0.0,84,0.00,,---,0.00,VWS V14.01,2013-10-12 07:11:00,
2013-10-12 00:16:00,47.5,42.9,29.98,NW,323,0.0,0.0,84,0.00,,---,0.00,VWS V14.01,2013-10-12 07:16:00,
2013-10-12 00:21:00,47.2,42.9,29.98,NW,323,0.0,0.0,85,0.00,,---,0.00,VWS V14.01,2013-10-12 07:21:00,
2013-10-12 00:26:00,47.0,42.7,29.98,NW,323,0.0,0.0,85,0.00,,---,0.00,VWS V14.01,2013-10-12 07:26:00,
2013-10-12 00:31:00,46.9,42.6,29.98,NW,323,0.0,0.0,85,0.00,,---,0.00,VWS V14.01,2013-10-12 07:31:00,
2013-10-12 00:36:00,46.7,42.4,29.97,NW,323,0.0,0.0,85,0.00,,---,0.00,VWS V14.01,2013-10-12 07:36:00,
2013-10-12 00:41:00,46.5,42.2,29.97,NW,323,0.0,0.0,85,0.00,,---,0.00,VWS V14.01,2013-10-12 07:41:00,
2013-10-12 00:46:00,46.3,42.0,29.97,NW,323,0.0,0.0,85,0.00,,---,0.00,VWS V14.01,2013-10-12 07:46:00,
2013-10-12 00:51:00,46.1,41.8,29.97,NW,323,0.0,0.0,85,0.00,,---,0.00,VWS V14.01,2013-10-12 07:51:00,
2013-10-12 00:56:00,45.9,42.0,29.97,NW,323,0.0,0.0,86,0.00,,---,0.00,VWS V14.01,2013-10-12 07:56:00,
2013-10-12 01:01:00,45.8,41.9,29.97,NW,323,0.0,0.0,86,0.00,,---,0.00,VWS V14.01,2013-10-12 08:01:00,
2013-10-12 01:06:00,45.7,41.8,29.97,NW,323,0.0,0.0,86,0.00,,---,0.00,VWS V14.01,2013-10-12 08:06:00,
2013-10-12 01:11:00,45.6,41.7,29.97,NW,323,0.0,0.0,86,0.00,,---,0.00,VWS V14.01,2013-10-12 08:11:00,
2013-10-12 01:16:00,45.5,41.6,29.97,NW,323,0.0,0.0,86,0.00,,---,0.00,VWS V14.01,2013-10-12 08:16:00,
2013-10-12 01:21:00,45.3,41.4,29.97,NW,323,0.0,0.0,86,0.00,,---,0.00,VWS V14.01,2013-10-12 08:21:00,
2013-10-12 01:26:00,45.2,41.3,29.97,NW,323,0.0,0.0,86,0.00,,---,0.00,VWS V14.01,2013-10-12 08:26:00,
2013-10-12 01:31:00,45.1,41.2,29.97,NW,323,0.0,0.0,86,0.00,,---,0.00,VWS V14.01,2013-10-12 08:31:00,
2013-10-12 01:36:00,45.0,41.1,29.97,NW,323,0.0,0.0,86,0.00,,---,0.00,VWS V14.01,2013-10-12 08:36:00,
2013-10-12 01:41:00,45.0,41.1,29.97,NW,323,0.0,0.0,86,0.00,,---,0.00,VWS V14.01,2013-10-12 08:41:00,
2013-10-12 01:46:00,45.0,41.1,29.98,NW,323,0.0,0.0,86,0.00,,---,0.00,VWS V14.01,2013-10-12 08:46:00,
2013-10-12 01:51:00,45.0,41.4,29.97,NW,323,0.0,0.0,87,0.00,,---,0.00,VWS V14.01,2013-10-12 08:51:00,
2013-10-12 01:56:00,45.2,41.3,29.98,NW,323,0.0,0.0,86,0.00,,---,0.00,VWS V14.01,2013-10-12 08:56:00,
2013-10-12 02:01:00,45.2,41.3,29.97,NW,323,0.0,0.0,86,0.00,,---,0.00,VWS V14.01,2013-10-12 09:01:00,
2013-10-12 02:06:00,45.1,41.2,29.97,NW,323,0.0,0.0,86,0.00,,---,0.00,VWS V14.01,2013-10-12 09:06:00,
2013-10-12 02:11:00,45.1,41.2,29.97,NW,323,0.0,0.0,86,0.00,,---,0.00,VWS V14.01,2013-10-12 09:11:00,
2013-10-12 02:16:00,45.0,41.4,29.97,NW,323,0.0,0.0,87,0.00,,---,0.00,VWS V14.01,2013-10-12 09:16:00,
2013-10-12 02:21:00,45.1,41.2,29.97,NW,323,0.0,0.0,86,0.00,,---,0.00,VWS V14.01,2013-10-12 09:21:00,
2013-10-12 02:26:00,45.0,41.1,29.97,NW,323,0.0,0.0,86,0.00,,---,0.00,VWS V14.01,2013-10-12 09:26:00,
2013-10-12 02:31:00,45.0,41.1,29.97,NW,323,0.0,0.0,86,0.00,,---,0.00,VWS V14.01,2013-10-12 09:31:00,
2013-10-12 02:36:00,44.8,41.2,29.97,NW,323,0.0,0.0,87,0.00,,---,0.00,VWS V14.01,2013-10-12 09:36:00,
2013-10-12 02:41:00,44.6,41.0,29.97,NW,323,0.0,0.0,87,0.00,,---,0.00,VWS V14.01,2013-10-12 09:41:00,
2013-10-12 02:46:00,44.4,40.8,29.97,NW,323,0.0,0.0,87,0.00,,---,0.00,VWS V14.01,2013-10-12 09:46:00,
2013-10-12 02:51:00,44.3,40.7,29.97,NW,323,0.0,0.0,87,0.00,,---,0.00,VWS V14.01,2013-10-12 09:51:00,
2013-10-12 02:56:00,44.1,40.5,29.97,NW,323,0.0,0.0,87,0.00,,---,0.00,VWS V14.01,2013-10-12 09:56:00,
2013-10-12 03:00:00,44.0,40.4,29.97,NW,323,0.0,0.0,87,0.00,,---,0.00,VWS V14.01,2013-10-12 10:00:00,
2013-10-12 03:05:00,43.9,40.3,29.97,NW,323,0.0,0.0,87,0.00,,---,0.00,VWS V14.01,2013-10-12 10:05:00,
2013-10-12 03:10:00,43.8,40.2,29.97,NW,323,0.0,0.0,87,0.00,,---,0.00,VWS V14.01,2013-10-12 10:10:00,
2013-10-12 03:16:00,43.6,40.0,29.97,NW,323,0.0,0.0,87,0.00,,---,0.00,VWS V14.01,2013-10-12 10:16:00,
2013-10-12 03:21:00,43.4,40.1,29.97,NW,323,0.0,0.0,88,0.00,,---,0.00,VWS V14.01,2013-10-12 10:21:00,
2013-10-12 03:26:00,43.3,40.0,29.97,NW,323,0.0,0.0,88,0.00,,---,0.00,VWS V14.01,2013-10-12 10:26:00,
2013-10-12 03:31:00,43.2,39.9,29.97,NW,323,0.0,0.0,88,0.00,,---,0.00,VWS V14.01,2013-10-12 10:31:00,
2013-10-12 03:36:00,43.1,39.8,29.96,NW,323,0.0,0.0,88,0.00,,---,0.00,VWS V14.01,2013-10-12 10:36:00,
2013-10-12 03:41:00,43.0,40.0,29.96,NW,323,0.0,0.0,89,0.00,,---,0.00,VWS V14.01,2013-10-12 10:41:00,
2013-10-12 03:46:00,42.9,39.9,29.96,NW,323,0.0,0.0,89,0.00,,---,0.00,VWS V14.01,2013-10-12 10:46:00,
2013-10-12 03:51:00,42.9,39.9,29.96,NW,323,0.0,0.0,89,0.00,,---,0.00,VWS V14.01,2013-10-12 10:51:00,
2013-10-12 03:56:00,42.9,39.9,29.96,NW,323,0.0,0.0,89,0.00,,---,0.00,VWS V14.01,2013-10-12 10:56:00,
2013-10-12 04:01:00,42.8,39.8,29.96,NW,323,0.0,0.0,89,0.00,,---,0.00,VWS V14.01,2013-10-12 11:01:00,
2013-10-12 04:06:00,42.7,39.7,29.96,NW,323,0.0,0.0,89,0.00,,---,0.00,VWS V14.01,2013-10-12 11:06:00,
2013-10-12 04:11:00,42.6,39.6,29.96,NW,323,0.0,0.0,89,0.00,,---,0.00,VWS V14.01,2013-10-12 11:11:00,
2013-10-12 04:16:00,42.5,39.5,29.96,NW,323,0.0,0.0,89,0.00,,---,0.00,VWS V14.01,2013-10-12 11:16:00,
2013-10-12 04:21:00,42.5,39.5,29.96,NW,323,0.0,0.0,89,0.00,,---,0.00,VWS V14.01,2013-10-12 11:21:00,
2013-10-12 04:26:00,42.3,39.3,29.96,NW,323,0.0,0.0,89,0.00,,---,0.00,VWS V14.01,2013-10-12 11:26:00,
2013-10-12 04:31:00,42.2,39.2,29.96,NW,323,0.0,0.0,89,0.00,,---,0.00,VWS V14.01,2013-10-12 11:31:00,
2013-10-12 04:36:00,42.2,39.2,29.96,NW,323,0.0,0.0,89,0.00,,---,0.00,VWS V14.01,2013-10-12 11:36:00,
2013-10-12 04:41:00,42.1,39.4,29.96,NW,323,0.0,0.0,90,0.00,,---,0.00,VWS V14.01,2013-10-12 11:41:00,
2013-10-12 04:46:00,42.1,39.4,29.96,NW,323,0.0,0.0,90,0.00,,---,0.00,VWS V14.01,2013-10-12 11:46:00,
2013-10-12 04:51:00,42.2,39.5,29.96,NW,323,0.0,0.0,90,0.00,,---,0.00,VWS V14.01,2013-10-12 11:51:00,
2013-10-12 04:56:00,42.2,39.5,29.96,NW,323,0.0,0.0,90,0.00,,---,0.00,VWS V14.01,2013-10-12 11:56:00,
2013-10-12 05:01:00,42.2,39.5,29.96,NW,323,0.0,0.0,90,0.00,,---,0.00,VWS V14.01,2013-10-12 12:01:00,
2013-10-12 05:06:00,42.2,39.5,29.96,NW,323,0.0,0.0,90,0.00,,---,0.00,VWS V14.01,2013-10-12 12:06:00,
2013-10-12 05:11:00,42.2,39.5,29.96,NW,323,0.0,0.0,90,0.00,,---,0.00,VWS V14.01,2013-10-12 12:11:00,
2013-10-12 05:16:00,42.2,39.5,29.96,NW,323,0.0,0.0,90,0.00,,---,0.00,VWS V14.01,2013-10-12 12:16:00,
2013-10-12 05:21:00,42.2,39.5,29.96,NW,323,0.0,0.0,90,0.00,,---,0.00,VWS V14.01,2013-10-12 12:21:00,
2013-10-12 05:26:00,42.4,40.0,29.96,NW,323,0.0,0.0,91,0.00,,---,0.00,VWS V14.01,2013-10-12 12:26:00,
2013-10-12 05:31:00,42.4,40.0,29.96,NW,323,0.0,0.0,91,0.00,,---,0.00,VWS V14.01,2013-10-12 12:31:00,
2013-10-12 05:35:00,42.5,40.1,29.97,NW,323,0.0,0.0,91,0.00,,---,0.00,VWS V14.01,2013-10-12 12:35:00,
2013-10-12 05:40:00,42.6,40.2,29.97,NW,323,0.0,0.0,91,0.00,,---,0.00,VWS V14.01,2013-10-12 12:40:00,
2013-10-12 05:45:00,42.9,40.5,29.97,NW,323,0.0,0.0,91,0.00,,---,0.00,VWS V14.01,2013-10-12 12:45:00,
2013-10-12 05:50:00,43.0,40.6,29.97,NW,323,0.0,0.0,91,0.00,,---,0.00,VWS V14.01,2013-10-12 12:50:00,
2013-10-12 05:55:00,43.0,40.6,29.97,NW,323,0.0,0.0,91,0.00,,---,0.00,VWS V14.01,2013-10-12 12:55:00,
2013-10-12 06:00:00,43.0,40.6,29.96,NW,323,0.0,0.0,91,0.00,,---,0.00,VWS V14.01,2013-10-12 13:00:00,
2013-10-12 06:05:00,43.0,40.6,29.96,NW,323,0.0,0.0,91,0.00,,---,0.00,VWS V14.01,2013-10-12 13:05:00,
2013-10-12 06:10:00,43.0,40.6,29.96,NW,323,0.0,0.0,91,0.00,,---,0.00,VWS V14.01,2013-10-12 13:10:00,
2013-10-12 06:15:00,43.0,40.6,29.97,NW,323,0.0,0.0,91,0.00,,---,0.00,VWS V14.01,2013-10-12 13:15:00,
2013-10-12 06:20:00,43.0,40.6,29.97,NW,323,0.0,0.0,91,0.00,,---,0.00,VWS V14.01,2013-10-12 13:20:00,
2013-10-12 06:25:00,43.0,40.6,29.97,NW,323,0.0,0.0,91,0.00,,---,0.00,VWS V14.01,2013-10-12 13:25:00,
2013-10-12 06:30:00,43.0,40.6,29.97,NW,323,0.0,0.0,91,0.00,,---,0.00,VWS V14.01,2013-10-12 13:30:00,
2013-10-12 06:35:00,42.9,40.5,29.97,NW,323,0.0,0.0,91,0.00,,---,0.00,VWS V14.01,2013-10-12 13:35:00,
2013-10-12 06:40:00,43.1,40.7,29.96,NW,323,0.0,0.0,91,0.00,,---,0.00,VWS V14.01,2013-10-12 13:40:00,
2013-10-12 06:45:00,43.1,40.7,29.97,NW,323,0.0,0.0,91,0.00,,---,0.00,VWS V14.01,2013-10-12 13:45:00,
2013-10-12 06:50:00,42.9,40.5,29.97,NW,323,0.0,0.0,91,0.00,,---,0.00,VWS V14.01,2013-10-12 13:50:00,
2013-10-12 06:55:00,42.8,40.4,29.97,NW,323,0.0,0.0,91,0.00,,---,0.00,VWS V14.01,2013-10-12 13:55:00,
2013-10-12 07:00:00,42.8,40.4,29.97,NW,323,0.0,0.0,91,0.00,,---,0.00,VWS V14.01,2013-10-12 14:00:00,
2013-10-12 07:05:00,42.6,40.2,29.97,NW,323,0.0,0.0,91,0.00,,---,0.00,VWS V14.01,2013-10-12 14:05:00,
2013-10-12 07:10:00,42.5,40.1,29.97,NW,323,0.0,0.0,91,0.00,,---,0.00,VWS V14.01,2013-10-12 14:10:00,
2013-10-12 07:15:00,42.3,39.9,29.97,NW,323,0.0,0.0,91,0.00,,---,0.00,VWS V14.01,2013-10-12 14:15:00,
2013-10-12 07:20:00,42.2,39.8,29.97,NW,323,0.0,0.0,91,0.00,,---,0.00,VWS V14.01,2013-10-12 14:20:00,
2013-10-12 07:25:00,42.1,39.7,29.97,NW,323,0.0,0.0,91,0.00,,---,0.00,VWS V14.01,2013-10-12 14:25:00,
2013-10-12 07:30:00,42.0,39.6,29.97,NW,323,0.0,0.0,91,0.00,,---,0.00,VWS V14.01,2013-10-12 14:30:00,
2013-10-12 07:35:00,42.2,39.8,29.97,NW,323,0.0,0.0,91,0.00,,---,0.00,VWS V14.01,2013-10-12 14:35:00,
2013-10-12 07:40:00,42.4,40.0,29.97,NW,323,0.0,0.0,91,0.00,,---,0.00,VWS V14.01,2013-10-12 14:40:00,
2013-10-12 07:45:00,42.7,40.5,29.97,NW,323,0.0,0.0,92,0.00,,---,0.00,VWS V14.01,2013-10-12 14:45:00,
2013-10-12 07:50:00,43.1,40.9,29.97,NW,323,0.0,0.0,92,0.00,,---,0.00,VWS V14.01,2013-10-12 14:50:00,
2013-10-12 07:55:00,43.6,41.4,29.97,NW,323,0.0,0.0,92,0.00,,---,0.00,VWS V14.01,2013-10-12 14:55:00,
2013-10-12 08:00:00,44.0,41.8,29.98,NW,323,0.0,0.0,92,0.00,,---,0.00,VWS V14.01,2013-10-12 15:00:00,
2013-10-12 08:05:00,44.5,42.3,29.97,NW,323,0.0,0.0,92,0.00,,---,0.00,VWS V14.01,2013-10-12 15:05:00,
2013-10-12 08:10:00,45.3,43.4,29.97,NW,323,0.0,0.0,93,0.00,,---,0.00,VWS V14.01,2013-10-12 15:10:00,
2013-10-12 08:15:00,46.1,44.2,29.97,ESE,112,0.0,2.0,93,0.00,,---,0.00,VWS V14.01,2013-10-12 15:15:00,
2013-10-12 08:20:00,46.8,44.6,29.98,ESE,112,0.0,2.0,92,0.00,,---,0.00,VWS V14.01,2013-10-12 15:20:00,
2013-10-12 08:25:00,47.3,44.8,29.98,ESE,112,0.0,1.0,91,0.00,,---,0.00,VWS V14.01,2013-10-12 15:25:00,
2013-10-12 08:30:00,47.8,45.0,29.98,ESE,112,0.0,1.0,90,0.00,,---,0.00,VWS V14.01,2013-10-12 15:30:00,
2013-10-12 08:35:00,48.5,45.4,29.98,ESE,112,0.0,1.0,89,0.00,,---,0.00,VWS V14.01,2013-10-12 15:35:00,
2013-10-12 08:40:00,49.5,45.8,29.98,SE,126,0.0,4.0,87,0.00,,---,0.00,VWS V14.01,2013-10-12 15:40:00,
2013-10-12 08:45:00,50.5,46.5,29.98,ESE,108,1.0,2.0,86,0.00,,---,0.00,VWS V14.01,2013-10-12 15:45:00,
2013-10-12 08:50:00,51.5,46.8,29.98,ESE,115,0.0,3.0,84,0.00,,---,0.00,VWS V14.01,2013-10-12 15:50:00,
2013-10-12 08:55:00,52.3,47.3,29.98,East,93,0.0,1.0,83,0.00,,---,0.00,VWS V14.01,2013-10-12 15:55:00,
2013-10-12 09:00:00,53.0,47.3,29.98,East,98,0.0,2.0,81,0.00,,---,0.00,VWS V14.01,2013-10-12 16:00:00,
2013-10-12 09:06:00,53.8,47.8,29.99,ESE,121,1.0,2.0,80,0.00,,---,0.00,VWS V14.01,2013-10-12 16:06:00,
2013-10-12 09:11:00,54.5,47.8,29.98,ESE,123,2.0,4.0,78,0.00,,---,0.00,VWS V14.01,2013-10-12 16:11:00,
2013-10-12 09:16:00,55.1,48.0,29.98,East,96,0.0,3.0,77,0.00,,---,0.00,VWS V14.01,2013-10-12 16:16:00,
2013-10-12 09:21:00,55.8,48.0,29.98,ESE,105,0.0,3.0,75,0.00,,---,0.00,VWS V14.01,2013-10-12 16:21:00,
2013-10-12 09:26:00,56.3,48.1,29.98,East,98,1.0,5.0,74,0.00,,---,0.00,VWS V14.01,2013-10-12 16:26:00,
2013-10-12 09:31:00,56.6,48.1,29.98,East,96,0.0,5.0,73,0.00,,---,0.00,VWS V14.01,2013-10-12 16:31:00,
2013-10-12 09:36:00,57.2,48.6,29.98,ESE,109,0.0,2.0,73,0.00,,---,0.00,VWS V14.01,2013-10-12 16:36:00,
2013-10-12 09:41:00,57.8,48.5,29.98,East,80,2.0,3.0,71,0.00,,---,0.00,VWS V14.01,2013-10-12 16:41:00,
2013-10-12 09:46:00,58.2,48.5,29.98,East,98,0.0,4.0,70,0.00,,---,0.00,VWS V14.01,2013-10-12 16:46:00,
2013-10-12 09:51:00,58.8,48.7,29.98,East,93,1.0,4.0,69,0.00,,---,0.00,VWS V14.01,2013-10-12 16:51:00,
2013-10-12 09:56:00,59.0,48.5,29.98,ESE,114,0.0,3.0,68,0.00,,---,0.00,VWS V14.01,2013-10-12 16:56:00,
2013-10-12 10:01:00,59.6,48.6,29.97,ESE,117,0.0,4.0,67,0.00,,---,0.00,VWS V14.01,2013-10-12 17:01:00,
2013-10-12 10:06:00,60.2,48.8,29.97,ESE,115,2.0,4.0,66,0.00,,---,0.00,VWS V14.01,2013-10-12 17:06:00,
2013-10-12 10:11:00,60.6,48.8,29.97,ESE,109,3.0,4.0,65,0.00,,---,0.00,VWS V14.01,2013-10-12 17:11:00,
2013-10-12 10:16:00,61.2,48.9,29.97,East,94,0.0,3.0,64,0.00,,---,0.00,VWS V14.01,2013-10-12 17:16:00,
2013-10-12 10:21:00,61.8,49.1,29.97,East,82,0.0,3.0,63,0.00,,---,0.00,VWS V14.01,2013-10-12 17:21:00,
2013-10-12 10:26:00,62.3,48.7,29.97,SE,125,0.0,1.0,61,0.00,,---,0.00,VWS V14.01,2013-10-12 17:26:00,
2013-10-12 10:31:00,63.0,48.9,29.97,ESE,117,0.0,2.0,60,0.00,,---,0.00,VWS V14.01,2013-10-12 17:31:00,
2013-10-12 10:35:00,63.7,49.1,29.97,East,98,1.0,1.0,59,0.00,,---,0.00,VWS V14.01,2013-10-12 17:35:00,
2013-10-12 10:40:00,64.5,49.0,29.97,East,101,2.0,3.0,57,0.00,,---,0.00,VWS V14.01,2013-10-12 17:40:00,
2013-10-12 10:45:00,65.1,48.1,29.97,East,86,0.0,2.0,54,0.00,,---,0.00,VWS V14.01,2013-10-12 17:45:00,
2013-10-12 10:50:00,65.6,48.0,29.97,East,86,1.0,2.0,53,0.00,,---,0.00,VWS V14.01,2013-10-12 17:50:00,
2013-10-12 10:55:00,66.0,47.4,29.96,NE,34,0.0,2.0,51,0.00,,---,0.00,VWS V14.01,2013-10-12 17:55:00,
2013-10-12 11:00:00,66.1,48.0,29.96,NNE,26,0.0,2.0,52,0.00,,---,0.00,VWS V14.01,2013-10-12 18:00:00,
2013-10-12 11:05:00,65.5,47.9,29.96,WNW,287,0.0,3.0,53,0.00,,---,0.00,VWS V14.01,2013-10-12 18:05:00,
2013-10-12 11:10:00,65.2,47.7,29.96,WNW,284,0.0,3.0,53,0.00,,---,0.00,VWS V14.01,2013-10-12 18:10:00,
2013-10-12 11:15:00,65.1,48.1,29.96,West,279,0.0,1.0,54,0.00,,---,0.00,VWS V14.01,2013-10-12 18:15:00,
2013-10-12 11:20:00,64.9,47.9,29.95,WSW,246,0.0,3.0,54,0.00,,---,0.00,VWS V14.01,2013-10-12 18:20:00,
2013-10-12 11:25:00,65.2,48.2,29.95,ESE,109,3.0,3.0,54,0.00,,---,0.00,VWS V14.01,2013-10-12 18:25:00,
2013-10-12 11:30:00,66.5,48.9,29.95,ESE,118,0.0,3.0,53,0.00,,---,0.00,VWS V14.01,2013-10-12 18:30:00,
2013-10-12 11:35:00,67.9,49.1,29.95,East,96,1.0,2.0,51,0.00,,---,0.00,VWS V14.01,2013-10-12 18:35:00,
2013-10-12 11:40:00,68.8,48.9,29.95,East,90,1.0,2.0,49,0.00,,---,0.00,VWS V14.01,2013-10-12 18:40:00,
2013-10-12 11:45:00,69.3,48.8,29.95,East,97,0.0,2.0,48,0.00,,---,0.00,VWS V14.01,2013-10-12 18:45:00,
2013-10-12 11:50:00,69.7,48.6,29.95,East,85,1.0,3.0,47,0.00,,---,0.00,VWS V14.01,2013-10-12 18:50:00,
2013-10-12 11:55:00,70.2,49.0,29.94,East,82,0.0,1.0,47,0.00,,---,0.00,VWS V14.01,2013-10-12 18:55:00,
2013-10-12 12:00:00,70.7,49.5,29.95,East,82,0.0,1.0,47,0.00,,---,0.00,VWS V14.01,2013-10-12 19:00:00,
2013-10-12 12:05:00,71.1,49.9,29.95,ENE,71,0.0,1.0,47,0.00,,---,0.00,VWS V14.01,2013-10-12 19:05:00,
2013-10-12 12:10:00,71.3,49.5,29.95,NE,40,2.0,3.0,46,0.00,,---,0.00,VWS V14.01,2013-10-12 19:10:00,
2013-10-12 12:15:00,71.4,49.0,29.94,ENE,76,0.0,2.0,45,0.00,,---,0.00,VWS V14.01,2013-10-12 19:15:00,
2013-10-12 12:20:00,71.7,49.8,29.94,NNE,28,3.0,3.0,46,0.00,,---,0.00,VWS V14.01,2013-10-12 19:20:00,
2013-10-12 12:25:00,72.1,50.2,29.94,NNE,16,0.0,3.0,46,0.00,,---,0.00,VWS V14.01,2013-10-12 19:25:00,
2013-10-12 12:30:00,72.4,49.9,29.93,NNE,31,1.0,4.0,45,0.00,,---,0.00,VWS V14.01,2013-10-12 19:30:00,
2013-10-12 12:35:00,72.6,50.1,29.93,WNW,298,0.0,2.0,45,0.00,,---,0.00,VWS V14.01,2013-10-12 19:35:00,
2013-10-12 12:40:00,72.5,49.4,29.93,NNE,22,0.0,3.0,44,0.00,,---,0.00,VWS V14.01,2013-10-12 19:40:00,
2013-10-12 12:45:00,72.6,49.5,29.93,ENE,69,0.0,1.0,44,0.00,,---,0.00,VWS V14.01,2013-10-12 19:45:00,
2013-10-12 12:50:00,73.0,49.2,29.92,NW,314,0.0,2.0,43,0.00,,---,0.00,VWS V14.01,2013-10-12 19:50:00,
2013-10-12 12:55:00,72.9,49.1,29.92,East,95,1.0,4.0,43,0.00,,---,0.00,VWS V14.01,2013-10-12 19:55:00,
2013-10-12 13:00:00,73.0,49.2,29.92,NE,53,0.0,4.0,43,0.00,,---,0.00,VWS V14.01,2013-10-12 20:00:00,
2013-10-12 13:05:00,73.0,49.2,29.92,East,88,1.0,3.0,43,0.00,,---,0.00,VWS V14.01,2013-10-12 20:05:00,
2013-10-12 13:10:00,73.4,48.9,29.91,ENE,77,1.0,3.0,42,0.00,,---,0.00,VWS V14.01,2013-10-12 20:10:00,
2013-10-12 13:15:00,73.7,49.2,29.91,ESE,114,1.0,2.0,42,0.00,,---,0.00,VWS V14.01,2013-10-12 20:15:00,
2013-10-12 13:20:00,74.2,49.7,29.90,NE,36,0.0,2.0,42,0.00,,---,0.00,VWS V14.01,2013-10-12 20:20:00,
2013-10-12 13:25:00,74.3,49.1,29.90,NW,307,1.0,2.0,41,0.00,,---,0.00,VWS V14.01,2013-10-12 20:25:00,
2013-10-12 13:30:00,74.4,47.9,29.90,NW,307,0.0,2.0,39,0.00,,---,0.00,VWS V14.01,2013-10-12 20:30:00,
2013-10-12 13:35:00,74.7,47.4,29.90,West,267,0.0,3.0,38,0.00,,---,0.00,VWS V14.01,2013-10-12 20:35:00,
2013-10-12 13:40:00,74.4,47.9,29.90,WNW,294,0.0,5.0,39,0.00,,---,0.00,VWS V14.01,2013-10-12 20:40:00,
2013-10-12 13:45:00,73.9,48.1,29.89,West,275,0.0,5.0,40,0.00,,---,0.00,VWS V14.01,2013-10-12 20:45:00,
2013-10-12 13:50:00,73.4,47.6,29.90,ESE,123,0.0,5.0,40,0.00,,---,0.00,VWS V14.01,2013-10-12 20:50:00,
2013-10-12 13:55:00,73.7,47.9,29.89,WSW,252,0.0,4.0,40,0.00,,---,0.00,VWS V14.01,2013-10-12 20:55:00,
2013-10-12 14:00:00,73.6,46.5,29.89,WSW,248,0.0,4.0,38,0.00,,---,0.00,VWS V14.01,2013-10-12 21:00:00,
2013-10-12 14:05:00,73.4,46.3,29.89,WNW,292,2.0,5.0,38,0.00,,---,0.00,VWS V14.01,2013-10-12 21:05:00,
2013-10-12 14:10:00,73.3,46.9,29.89,SW,226,0.0,5.0,39,0.00,,---,0.00,VWS V14.01,2013-10-12 21:10:00,
2013-10-12 14:15:00,73.2,46.8,29.89,WSW,257,1.0,3.0,39,0.00,,---,0.00,VWS V14.01,2013-10-12 21:15:00,
2013-10-12 14:20:00,73.0,46.6,29.89,North,355,0.0,3.0,39,0.00,,---,0.00,VWS V14.01,2013-10-12 21:20:00,
2013-10-12 14:25:00,72.7,45.7,29.89,SW,235,0.0,6.0,38,0.00,,---,0.00,VWS V14.01,2013-10-12 21:25:00,
2013-10-12 14:30:00,72.4,46.7,29.89,WNW,283,3.0,7.0,40,0.00,,---,0.00,VWS V14.01,2013-10-12 21:30:00,
2013-10-12 14:35:00,72.2,47.2,29.89,WNW,287,0.0,4.0,41,0.00,,---,0.00,VWS V14.01,2013-10-12 21:35:00,
2013-10-12 14:40:00,72.1,47.1,29.88,East,83,0.0,5.0,41,0.00,,---,0.00,VWS V14.01,2013-10-12 21:40:00,
2013-10-12 14:45:00,72.0,47.0,29.89,West,274,7.0,7.0,41,0.00,,---,0.00,VWS V14.01,2013-10-12 21:45:00,
2013-10-12 14:50:00,71.8,46.2,29.88,SSW,200,1.0,7.0,40,0.00,,---,0.00,VWS V14.01,2013-10-12 21:50:00,
2013-10-12 14:55:00,71.7,46.8,29.88,West,259,0.0,5.0,41,0.00,,---,0.00,VWS V14.01,2013-10-12 21:55:00,
2013-10-12 15:00:00,71.4,45.8,29.88,SSE,161,0.0,8.0,40,0.00,,---,0.00,VWS V14.01,2013-10-12 22:00:00,
2013-10-12 15:05:00,71.3,45.8,29.88,WNW,285,0.0,4.0,40,0.00,,---,0.00,VWS V14.01,2013-10-12 22:05:00,
2013-10-12 15:10:00,71.2,45.0,29.88,NW,308,6.0,6.0,39,0.00,,---,0.00,VWS V14.01,2013-10-12 22:10:00,
2013-10-12 15:15:00,70.9,44.7,29.88,SSE,149,0.0,9.0,39,0.00,,---,0.00,VWS V14.01,2013-10-12 22:15:00,
2013-10-12 15:20:00,70.8,44.6,29.88,ESE,115,0.0,9.0,39,0.00,,---,0.00,VWS V14.01,2013-10-12 22:20:00,
2013-10-12 15:25:00,71.0,44.8,29.88,NNW,341,1.0,2.0,39,0.00,,---,0.00,VWS V14.01,2013-10-12 22:25:00,
2013-10-12 15:30:00,71.2,44.3,29.88,WSW,242,1.0,9.0,38,0.00,,---,0.00,VWS V14.01,2013-10-12 22:30:00,
2013-10-12 15:35:00,71.1,44.2,29.88,West,279,0.0,6.0,38,0.00,,---,0.00,VWS V14.01,2013-10-12 22:35:00,
2013-10-12 15:40:00,70.9,44.7,29.88,NW,308,1.0,6.0,39,0.00,,---,0.00,VWS V14.01,2013-10-12 22:40:00,
2013-10-12 15:45:00,70.7,44.5,29.88,East,86,0.0,6.0,39,0.00,,---,0.00,VWS V14.01,2013-10-12 22:45:00,
2013-10-12 15:50:00,70.5,44.4,29.88,ESE,121,0.0,9.0,39,0.00,,---,0.00,VWS V14.01,2013-10-12 22:50:00,
2013-10-12 15:55:00,70.3,44.2,29.88,West,274,4.0,6.0,39,0.00,,---,0.00,VWS V14.01,2013-10-12 22:55:00,
2013-10-12 16:00:00,70.0,43.9,29.88,SSE,156,0.0,6.0,39,0.00,,---,0.00,VWS V14.01,2013-10-12 23:00:00,
2013-10-12 16:05:00,69.9,43.2,29.88,North,5,1.0,4.0,38,0.00,,---,0.00,VWS V14.01,2013-10-12 23:05:00,
2013-10-12 16:10:00,69.9,43.2,29.88,ESE,113,0.0,6.0,38,0.00,,---,0.00,VWS V14.01,2013-10-12 23:10:00,
2013-10-12 16:15:00,69.9,43.8,29.88,NNW,339,2.0,3.0,39,0.00,,---,0.00,VWS V14.01,2013-10-12 23:15:00,
2013-10-12 16:20:00,69.9,43.8,29.88,ESE,109,0.0,4.0,39,0.00,,---,0.00,VWS V14.01,2013-10-12 23:20:00,
2013-10-12 16:25:00,69.8,43.8,29.88,North,355,1.0,3.0,39,0.00,,---,0.00,VWS V14.01,2013-10-12 23:25:00,
2013-10-12 16:30:00,69.5,43.5,29.88,ENE,62,1.0,7.0,39,0.00,,---,0.00,VWS V14.01,2013-10-12 23:30:00,
2013-10-12 16:35:00,69.0,42.4,29.88,ESE,107,2.0,12.0,38,0.00,,---,0.00,VWS V14.01,2013-10-12 23:35:00,
2013-10-12 16:40:00,68.6,42.0,29.88,SSW,208,0.0,12.0,38,0.00,,---,0.00,VWS V14.01,2013-10-12 23:40:00,
2013-10-12 16:45:00,68.4,41.8,29.87,South,178,1.0,7.0,38,0.00,,---,0.00,VWS V14.01,2013-10-12 23:45:00,
2013-10-12 16:50:00,68.1,40.9,29.87,ESE,116,0.0,7.0,37,0.00,,---,0.00,VWS V14.01,2013-10-12 23:50:00,
2013-10-12 16:55:00,68.0,41.5,29.87,ESE,113,0.0,3.0,38,0.00,,---,0.00,VWS V14.01,2013-10-12 23:55:00,
2013-10-12 17:00:00,67.7,43.2,29.87,ESE,103,0.0,4.0,41,0.00,,---,0.00,VWS V14.01,2013-10-13 00:00:00,
2013-10-12 17:05:00,67.4,42.9,29.87,ESE,107,0.0,2.0,41,0.00,,---,0.00,VWS V14.01,2013-10-13 00:05:00,
2013-10-12 17:10:00,67.2,43.4,29.88,North,360,0.0,2.0,42,0.00,,---,0.00,VWS V14.01,2013-10-13 00:10:00,
2013-10-12 17:15:00,66.8,43.0,29.88,ESE,119,0.0,1.0,42,0.00,,---,0.00,VWS V14.01,2013-10-13 00:15:00,
2013-10-12 17:20:00,66.5,43.9,29.88,ESE,119,0.0,1.0,44,0.00,,---,0.00,VWS V14.01,2013-10-13 00:20:00,
2013-10-12 17:25:00,66.2,43.7,29.88,SE,138,1.0,3.0,44,0.00,,---,0.00,VWS V14.01,2013-10-13 00:25:00,
2013-10-12 17:30:00,65.7,44.4,29.88,ESE,115,0.0,3.0,46,0.00,,---,0.00,VWS V14.01,2013-10-13 00:30:00,
2013-10-12 17:35:00,65.0,44.3,29.88,WSW,258,0.0,4.0,47,0.00,,---,0.00,VWS V14.01,2013-10-13 00:35:00,
2013-10-12 17:40:00,64.4,44.3,29.88,West,261,0.0,4.0,48,0.00,,---,0.00,VWS V14.01,2013-10-13 00:40:00,
2013-10-12 17:45:00,63.9,44.4,29.88,West,261,0.0,0.0,49,0.00,,---,0.00,VWS V14.01,2013-10-13 00:45:00,
2013-10-12 17:50:00,63.4,43.9,29.88,West,259,0.0,2.0,49,0.00,,---,0.00,VWS V14.01,2013-10-13 00:50:00,
2013-10-12 17:55:00,63.0,44.1,29.88,West,259,0.0,0.0,50,0.00,,---,0.00,VWS V14.01,2013-10-13 00:55:00,
2013-10-12 18:00:00,62.5,43.6,29.88,SE,142,0.0,4.0,50,0.00,,---,0.00,VWS V14.01,2013-10-13 01:00:00,
2013-10-12 18:05:00,62.2,43.9,29.88,SE,140,0.0,0.0,51,0.00,,---,0.00,VWS V14.01,2013-10-13 01:05:00,
2013-10-12 18:10:00,61.8,43.5,29.88,SE,140,0.0,0.0,51,0.00,,---,0.00,VWS V14.01,2013-10-13 01:10:00,
2013-10-12 18:15:00,61.5,43.7,29.88,SE,140,0.0,0.0,52,0.00,,---,0.00,VWS V14.01,2013-10-13 01:15:00,
2013-10-12 18:20:00,61.1,43.9,29.88,SE,140,0.0,0.0,53,0.00,,---,0.00,VWS V14.01,2013-10-13 01:20:00,
2013-10-12 18:25:00,60.7,43.5,29.88,South,186,0.0,1.0,53,0.00,,---,0.00,VWS V14.01,2013-10-13 01:25:00,
2013-10-12 18:30:00,60.2,43.0,29.88,SSE,150,0.0,1.0,53,0.00,,---,0.00,VWS V14.01,2013-10-13 01:30:00,
2013-10-12 18:35:00,59.8,43.6,29.88,SSE,148,0.0,1.0,55,0.00,,---,0.00,VWS V14.01,2013-10-13 01:35:00,
2013-10-12 18:40:00,59.3,44.1,29.88,West,280,1.0,3.0,57,0.00,,---,0.00,VWS V14.01,2013-10-13 01:40:00,
2013-10-12 18:45:00,59.0,44.3,29.88,SW,217,0.0,2.0,58,0.00,,---,0.00,VWS V14.01,2013-10-13 01:45:00,
2013-10-12 18:50:00,59.0,44.3,29.88,WSW,250,0.0,3.0,58,0.00,,---,0.00,VWS V14.01,2013-10-13 01:50:00,
2013-10-12 18:55:00,58.7,44.9,29.88,SE,127,0.0,0.0,60,0.00,,---,0.00,VWS V14.01,2013-10-13 01:55:00,
2013-10-12 18:57:00,58.6,44.8,29.88,SE,127,0.0,0.0,60,0.00,,---,0.00,VWS V14.01,2013-10-13 01:57:00,
2013-10-12 19:02:00,58.2,44.8,29.88,SSE,149,0.0,0.0,61,0.00,,---,0.00,VWS V14.01,2013-10-13 02:02:00,
2013-10-12 19:07:00,57.8,44.5,29.88,SSE,149,0.0,1.0,61,0.00,,---,0.00,VWS V14.01,2013-10-13 02:07:00,
2013-10-12 19:12:00,57.6,44.3,29.88,SSE,149,0.0,0.0,61,0.00,,---,0.00,VWS V14.01,2013-10-13 02:12:00,
2013-10-12 19:17:00,57.4,44.5,29.88,SSE,149,0.0,0.0,62,0.00,,---,0.00,VWS V14.01,2013-10-13 02:17:00,
2013-10-12 19:22:00,57.1,44.6,29.88,SSE,148,0.0,0.0,63,0.00,,---,0.00,VWS V14.01,2013-10-13 02:22:00,
2013-10-12 19:27:00,56.8,44.8,29.88,SSE,148,0.0,0.0,64,0.00,,---,0.00,VWS V14.01,2013-10-13 02:27:00,
2013-10-12 19:32:00,56.6,45.0,29.88,SSE,148,0.0,0.0,65,0.00,,---,0.00,VWS V14.01,2013-10-13 02:32:00,
2013-10-12 19:37:00,56.4,45.2,29.88,SSE,148,0.0,0.0,66,0.00,,---,0.00,VWS V14.01,2013-10-13 02:37:00,
2013-10-12 19:42:00,56.2,45.0,29.88,SSE,148,0.0,0.0,66,0.00,,---,0.00,VWS V14.01,2013-10-13 02:42:00,
2013-10-12 19:47:00,55.8,45.0,29.88,SSE,148,0.0,0.0,67,0.00,,---,0.00,VWS V14.01,2013-10-13 02:47:00,
2013-10-12 19:52:00,55.5,45.1,29.88,SSE,148,0.0,0.0,68,0.00,,---,0.00,VWS V14.01,2013-10-13 02:52:00,
2013-10-12 19:57:00,55.1,44.7,29.88,SSE,148,0.0,0.0,68,0.00,,---,0.00,VWS V14.01,2013-10-13 02:57:00,
2013-10-12 20:02:00,54.8,44.8,29.88,SSE,147,0.0,0.0,69,0.00,,---,0.00,VWS V14.01,2013-10-13 03:02:00,
2013-10-12 20:07:00,54.5,44.9,29.88,SSE,147,0.0,0.0,70,0.00,,---,0.00,VWS V14.01,2013-10-13 03:07:00,
2013-10-12 20:12:00,54.3,44.7,29.88,SSE,147,0.0,0.0,70,0.00,,---,0.00,VWS V14.01,2013-10-13 03:12:00,
2013-10-12 20:17:00,54.1,44.9,29.88,SSE,147,0.0,0.0,71,0.00,,---,0.00,VWS V14.01,2013-10-13 03:17:00,
2013-10-12 20:22:00,53.8,45.0,29.89,SSE,147,0.0,0.0,72,0.00,,---,0.00,VWS V14.01,2013-10-13 03:22:00,
2013-10-12 20:27:00,53.5,44.7,29.89,SSE,147,0.0,0.0,72,0.00,,---,0.00,VWS V14.01,2013-10-13 03:27:00,
2013-10-12 20:32:00,53.3,44.5,29.89,SSE,147,0.0,0.0,72,0.00,,---,0.00,VWS V14.01,2013-10-13 03:32:00,
2013-10-12 20:37:00,53.1,44.3,29.89,SSE,147,0.0,0.0,72,0.00,,---,0.00,VWS V14.01,2013-10-13 03:37:00,
2013-10-12 20:42:00,52.9,44.5,29.89,ESE,111,2.0,2.0,73,0.00,,---,0.00,VWS V14.01,2013-10-13 03:42:00,
2013-10-12 20:47:00,52.7,44.7,29.89,ESE,114,0.0,2.0,74,0.00,,---,0.00,VWS V14.01,2013-10-13 03:47:00,
2013-10-12 20:52:00,52.8,45.5,29.90,ESE,107,0.0,0.0,76,0.00,,---,0.00,VWS V14.01,2013-10-13 03:52:00,
2013-10-12 20:57:00,52.9,45.2,29.89,ESE,107,0.0,0.0,75,0.00,,---,0.00,VWS V14.01,2013-10-13 03:57:00,
2013-10-12 21:01:00,52.8,44.8,29.90,ESE,107,0.0,0.0,74,0.00,,---,0.00,VWS V14.01,2013-10-13 04:01:00,
2013-10-12 21:06:00,52.6,44.9,29.90,ESE,107,0.0,0.0,75,0.00,,---,0.00,VWS V14.01,2013-10-13 04:06:00,
2013-10-12 21:11:00,52.4,44.7,29.90,ESE,107,0.0,0.0,75,0.00,,---,0.00,VWS V14.01,2013-10-13 04:11:00,
2013-10-12 21:16:00,52.2,44.9,29.89,ESE,107,0.0,0.0,76,0.00,,---,0.00,VWS V14.01,2013-10-13 04:16:00,
2013-10-12 21:21:00,51.9,44.9,29.90,ESE,107,0.0,0.0,77,0.00,,---,0.00,VWS V14.01,2013-10-13 04:21:00,
2013-10-12 21:26:00,51.8,45.2,29.90,ESE,107,0.0,0.0,78,0.00,,---,0.00,VWS V14.01,2013-10-13 04:26:00,
2013-10-12 21:31:00,51.5,44.9,29.90,ESE,107,0.0,0.0,78,0.00,,---,0.00,VWS V14.01,2013-10-13 04:31:00,
2013-10-12 21:36:00,51.3,44.7,29.90,ESE,107,0.0,0.0,78,0.00,,---,0.00,VWS V14.01,2013-10-13 04:36:00,
2013-10-12 21:41:00,51.1,44.5,29.90,ESE,107,0.0,1.0,78,0.00,,---,0.00,VWS V14.01,2013-10-13 04:41:00,
2013-10-12 21:46:00,50.9,44.6,29.90,ESE,107,0.0,1.0,79,0.00,,---,0.00,VWS V14.01,2013-10-13 04:46:00,
2013-10-12 21:51:00,50.7,44.8,29.89,ESE,107,0.0,1.0,80,0.00,,---,0.00,VWS V14.01,2013-10-13 04:51:00,
2013-10-12 21:56:00,50.5,44.9,29.89,ESE,107,0.0,0.0,81,0.00,,---,0.00,VWS V14.01,2013-10-13 04:56:00,
2013-10-12 22:01:00,50.4,44.8,29.90,North,360,0.0,0.0,81,0.00,,---,0.00,VWS V14.01,2013-10-13 05:01:00,
2013-10-12 22:06:00,50.2,44.9,29.90,North,360,0.0,0.0,82,0.00,,---,0.00,VWS V14.01,2013-10-13 05:06:00,
2013-10-12 22:11:00,50.0,44.7,29.90,North,360,0.0,0.0,82,0.00,,---,0.00,VWS V14.01,2013-10-13 05:11:00,
2013-10-12 22:16:00,49.9,44.6,29.90,North,360,0.0,0.0,82,0.00,,---,0.00,VWS V14.01,2013-10-13 05:16:00,
2013-10-12 22:21:00,49.7,44.4,29.91,North,360,0.0,0.0,82,0.00,,---,0.00,VWS V14.01,2013-10-13 05:21:00,
2013-10-12 22:26:00,49.6,44.7,29.91,ESE,115,0.0,2.0,83,0.00,,---,0.00,VWS V14.01,2013-10-13 05:26:00,
2013-10-12 22:31:00,49.6,44.7,29.91,ESE,115,0.0,2.0,83,0.00,,---,0.00,VWS V14.01,2013-10-13 05:31:00,
2013-10-12 22:36:00,49.5,44.6,29.91,ESE,115,0.0,0.0,83,0.00,,---,0.00,VWS V14.01,2013-10-13 05:36:00,
2013-10-12 22:41:00,49.4,44.5,29.91,ESE,115,0.0,0.0,83,0.00,,---,0.00,VWS V14.01,2013-10-13 05:41:00,
2013-10-12 22:46:00,49.2,44.6,29.91,ESE,115,0.0,0.0,84,0.00,,---,0.00,VWS V14.01,2013-10-13 05:46:00,
2013-10-12 22:51:00,49.2,44.6,29.91,ESE,115,0.0,0.0,84,0.00,,---,0.00,VWS V14.01,2013-10-13 05:51:00,
2013-10-12 22:56:00,49.1,44.5,29.91,ESE,115,0.0,0.0,84,0.00,,---,0.00,VWS V14.01,2013-10-13 05:56:00,
2013-10-12 23:01:00,48.9,44.6,29.91,ESE,115,0.0,0.0,85,0.00,,---,0.00,VWS V14.01,2013-10-13 06:01:00,
2013-10-12 23:06:00,48.8,44.5,29.90,ESE,115,0.0,0.0,85,0.00,,---,0.00,VWS V14.01,2013-10-13 06:06:00,
2013-10-12 23:11:00,48.7,44.4,29.90,ESE,115,0.0,0.0,85,0.00,,---,0.00,VWS V14.01,2013-10-13 06:11:00,
2013-10-12 23:16:00,48.6,44.3,29.90,ESE,115,0.0,1.0,85,0.00,,---,0.00,VWS V14.01,2013-10-13 06:16:00,
2013-10-12 23:21:00,48.4,44.1,29.90,ESE,115,0.0,1.0,85,0.00,,---,0.00,VWS V14.01,2013-10-13 06:21:00,
2013-10-12 23:26:00,48.4,44.4,29.90,ESE,115,0.0,1.0,86,0.00,,---,0.00,VWS V14.01,2013-10-13 06:26:00,
2013-10-12 23:31:00,48.5,44.5,29.91,SE,139,0.0,1.0,86,0.00,,---,0.00,VWS V14.01,2013-10-13 06:31:00,
2013-10-12 23:36:00,48.5,44.5,29.90,SE,139,0.0,0.0,86,0.00,,---,0.00,VWS V14.01,2013-10-13 06:36:00,
2013-10-12 23:41:00,48.4,44.4,29.91,SE,139,0.0,0.0,86,0.00,,---,0.00,VWS V14.01,2013-10-13 06:41:00,
2013-10-12 23:46:00,48.3,44.3,29.91,SE,139,0.0,0.0,86,0.00,,---,0.00,VWS V14.01,2013-10-13 06:46:00,
2013-10-12 23:51:00,48.2,44.2,29.90,SE,139,0.0,0.0,86,0.00,,---,0.00,VWS V14.01,2013-10-13 06:51:00,
2013-10-12 23:56:00,48.1,44.1,29.91,SE,139,0.0,0.0,86,0.00,,---,0.00,VWS V14.01,2013-10-13 06:56:00,